Lynn, MA (01902)

4:11 PM EST on February 27, 2015 (GMT -0500)
APRSWXNET Lynn MA US | Change Station
CLOSE
Current Station
Personal Weather Station
Location: Lynn, MA
Elevation: 26 ft
Nearby Weather Stations

Elev 26 ft 42.47 °N, 70.97 °W | Updated 36 minutes ago

Clear
Clear
27 °F
Feels Like 27 °F
N
2
Wind Variable Wind from NW
Gusts 9.0 mph

Today
High -- | Low -- °F
--% Chance of Precip.
Yesterday
High -- | Low -- °F
Precip. -- in
6:22 AM 5:30 PM
Waxing Gibbous, 71% visible
Pressure 30.34 in
Visibility 10.0 miles
Clouds Clear
Windchill 27 °F
Dew Point 5 °F
Humidity 38%
Rainfall 0.00 in
Snow Depth Not available.
UV 1 out of 12
Pollen .40 out of 12
Air Quality Not available.
Flu Activity Not available.
METAR KBVY 272053Z 32004KT 10SM CLR M03/M22 A3034 RMK AO2 SLP274 T10331217 53007

More Conditions Fewer Conditions

Pressure 30.34 in
Visibility 10.0 miles
Clouds Clear
Windchill 27 °F
Dew Point 5 °F
Humidity 38%
Rainfall 0.00 in
Snow Depth Not available.
UV 1 out of 12
Pollen .40 out of 12
Air Quality Not available.
Flu Activity Not available.
METAR KBVY 272053Z 32004KT 10SM CLR M03/M22 A3034 RMK AO2 SLP274 T10331217 53007

More Conditions Fewer Conditions

10-Day Weather Forecast

Almanac

Astronomy

Feb. 27, 2015 Rise Set
Actual Time
Civil Twilight
Nautical Twilight
Astronomical Twilight
Moon
Length of Visible Light
Length of Day
Tomorrow will be .
, % of the Moon is Illuminated

Today's Extremes

State Highs State Lows

Community

WunderPhotos

Upload Photos

1,800,828 photos uploaded!

WunderBlogs® & News

Nearby

Air Quality

  Air Quality AQ Index Pollutant
Not available.

Snow Depth

Station Depth Elevation

Earthquake Activity

City Distance Mag. Time & Date
Minimum magnitude displayed is 2.5.

Coastal Water Temperatures

Place Temperature

Nearby Weather Stations